sensor_id;sensor_type;location;lat;lon;timestamp;pressure;altitude;pressure_sealevel;temperature;humidity
13013;BME280;22580;57.670;12.006;2022-10-16T00:01:41;100116.19;;;19.74;100.00
13013;BME280;22580;57.670;12.006;2022-10-16T00:04:08;100122.38;;;19.97;100.00
13013;BME280;22580;57.670;12.006;2022-10-16T00:06:36;100101.56;;;19.60;100.00
13013;BME280;22580;57.670;12.006;2022-10-16T00:09:05;100115.00;;;19.91;100.00
13013;BME280;22580;57.670;12.006;2022-10-16T00:11:34;100117.44;;;19.86;100.00
13013;BME280;22580;57.670;12.006;2022-10-16T00:14:05;100103.78;;;19.34;100.00
13013;BME280;22580;57.670;12.006;2022-10-16T00:16:46;100083.34;;;19.46;100.00
13013;BME280;22580;57.670;12.006;2022-10-16T00:19:15;100125.28;;;19.36;100.00
13013;BME280;22580;57.670;12.006;2022-10-16T00:21:43;100129.13;;;19.18;100.00
13013;BME280;22580;57.670;12.006;2022-10-16T00:24:12;100139.13;;;18.95;100.00
13013;BME280;22580;57.670;12.006;2022-10-16T00:26:39;100108.31;;;18.10;100.00
13013;BME280;22580;57.670;12.006;2022-10-16T00:29:08;100137.25;;;18.48;100.00
13013;BME280;22580;57.670;12.006;2022-10-16T00:31:37;100137.41;;;18.63;100.00
13013;BME280;22580;57.670;12.006;2022-10-16T00:34:04;100110.28;;;19.25;100.00
13013;BME280;22580;57.670;12.006;2022-10-16T00:36:31;100115.22;;;18.67;100.00
13013;BME280;22580;57.670;12.006;2022-10-16T00:38:58;100146.03;;;18.97;100.00
13013;BME280;22580;57.670;12.006;2022-10-16T00:41:27;100144.34;;;18.57;100.00
13013;BME280;22580;57.670;12.006;2022-10-16T00:43:55;100153.06;;;19.07;100.00
13013;BME280;22580;57.670;12.006;2022-10-16T00:46:29;100153.97;;;18.60;100.00
13013;BME280;22580;57.670;12.006;2022-10-16T00:49:02;100159.16;;;19.62;100.00
13013;BME280;22580;57.670;12.006;2022-10-16T00:51:34;100132.31;;;19.53;100.00
13013;BME280;22580;57.670;12.006;2022-10-16T00:54:06;100120.34;;;19.85;99.54
13013;BME280;22580;57.670;12.006;2022-10-16T00:56:35;100139.03;;;19.80;98.93
13013;BME280;22580;57.670;12.006;2022-10-16T00:59:06;100151.69;;;19.64;99.80
13013;BME280;22580;57.670;12.006;2022-10-16T01:01:43;100130.03;;;19.79;98.76
13013;BME280;22580;57.670;12.006;2022-10-16T01:04:14;100138.19;;;19.56;99.21
13013;BME280;22580;57.670;12.006;2022-10-16T01:06:47;100172.94;;;20.13;97.81
13013;BME280;22580;57.670;12.006;2022-10-16T01:09:22;100176.41;;;20.22;97.17
13013;BME280;22580;57.670;12.006;2022-10-16T01:11:58;100128.78;;;19.67;97.82
13013;BME280;22580;57.670;12.006;2022-10-16T01:14:34;100178.91;;;19.48;99.04
13013;BME280;22580;57.670;12.006;2022-10-16T01:17:12;100170.69;;;19.64;98.29
13013;BME280;22580;57.670;12.006;2022-10-16T01:22:54;100174.09;;;19.81;97.43
13013;BME280;22580;57.670;12.006;2022-10-16T01:25:31;100173.75;;;19.61;97.17
13013;BME280;22580;57.670;12.006;2022-10-16T01:28:11;100181.56;;;19.79;97.20
13013;BME280;22580;57.670;12.006;2022-10-16T01:30:44;100183.16;;;19.74;96.83
13013;BME280;22580;57.670;12.006;2022-10-16T01:33:16;100186.16;;;19.56;97.58
13013;BME280;22580;57.670;12.006;2022-10-16T01:35:47;100189.00;;;19.62;96.79
13013;BME280;22580;57.670;12.006;2022-10-16T01:38:25;100189.31;;;19.37;97.63
13013;BME280;22580;57.670;12.006;2022-10-16T01:40:56;100179.53;;;19.05;98.52
13013;BME280;22580;57.670;12.006;2022-10-16T01:43:43;100183.97;;;18.97;98.90
13013;BME280;22580;57.670;12.006;2022-10-16T01:46:13;100173.19;;;18.81;98.92
13013;BME280;22580;57.670;12.006;2022-10-16T01:48:47;100184.81;;;19.21;98.14
13013;BME280;22580;57.670;12.006;2022-10-16T01:51:18;100160.84;;;19.63;95.82
13013;BME280;22580;57.670;12.006;2022-10-16T01:53:48;100181.81;;;19.70;95.13
13013;BME280;22580;57.670;12.006;2022-10-16T01:56:18;100186.38;;;19.46;96.08
13013;BME280;22580;57.670;12.006;2022-10-16T01:58:52;100157.06;;;19.19;96.29
13013;BME280;22580;57.670;12.006;2022-10-16T02:01:22;100190.59;;;19.18;97.35
13013;BME280;22580;57.670;12.006;2022-10-16T02:03:53;100181.41;;;19.27;96.72
13013;BME280;22580;57.670;12.006;2022-10-16T02:06:22;100176.84;;;18.96;97.60
13013;BME280;22580;57.670;12.006;2022-10-16T02:08:50;100181.50;;;19.11;97.49
13013;BME280;22580;57.670;12.006;2022-10-16T02:11:22;100196.38;;;18.84;98.36
13013;BME280;22580;57.670;12.006;2022-10-16T02:13:54;100193.50;;;19.16;96.88
13013;BME280;22580;57.670;12.006;2022-10-16T02:16:33;100199.75;;;19.17;96.61
13013;BME280;22580;57.670;12.006;2022-10-16T02:19:03;100207.00;;;18.93;97.60
13013;BME280;22580;57.670;12.006;2022-10-16T02:21:36;100211.75;;;18.91;97.52
13013;BME280;22580;57.670;12.006;2022-10-16T02:24:12;100198.63;;;18.72;97.87
13013;BME280;22580;57.670;12.006;2022-10-16T02:26:47;100225.06;;;18.46;100.00
13013;BME280;22580;57.670;12.006;2022-10-16T02:29:19;100164.59;;;18.14;99.70
13013;BME280;22580;57.670;12.006;2022-10-16T02:31:53;100216.91;;;18.70;98.89
13013;BME280;22580;57.670;12.006;2022-10-16T02:34:24;100212.06;;;18.33;100.00
13013;BME280;22580;57.670;12.006;2022-10-16T02:36:53;100206.19;;;18.85;98.64
13013;BME280;22580;57.670;12.006;2022-10-16T02:39:21;100225.38;;;18.51;100.00
13013;BME280;22580;57.670;12.006;2022-10-16T02:41:51;100213.53;;;18.60;99.49
13013;BME280;22580;57.670;12.006;2022-10-16T02:44:22;100210.09;;;18.11;100.00
13013;BME280;22580;57.670;12.006;2022-10-16T02:46:51;100215.28;;;18.28;100.00
13013;BME280;22580;57.670;12.006;2022-10-16T02:49:18;100223.59;;;18.19;100.00
13013;BME280;22580;57.670;12.006;2022-10-16T02:51:45;100216.25;;;18.52;100.00
13013;BME280;22580;57.670;12.006;2022-10-16T02:54:12;100204.72;;;18.66;100.00
13013;BME280;22580;57.670;12.006;2022-10-16T02:56:40;100216.22;;;18.68;100.00
13013;BME280;22580;57.670;12.006;2022-10-16T02:59:14;100226.25;;;18.27;100.00
13013;BME280;22580;57.670;12.006;2022-10-16T03:01:43;100223.78;;;18.01;100.00
13013;BME280;22580;57.670;12.006;2022-10-16T03:04:12;100227.06;;;18.68;100.00
13013;BME280;22580;57.670;12.006;2022-10-16T03:06:40;100221.22;;;18.95;100.00
13013;BME280;22580;57.670;12.006;2022-10-16T03:09:07;100196.91;;;18.16;100.00
13013;BME280;22580;57.670;12.006;2022-10-16T03:11:34;100211.56;;;19.24;99.02
13013;BME280;22580;57.670;12.006;2022-10-16T03:14:05;100192.91;;;19.29;98.49
13013;BME280;22580;57.670;12.006;2022-10-16T03:16:32;100188.34;;;19.29;97.49
13013;BME280;22580;57.670;12.006;2022-10-16T03:19:03;100178.47;;;19.37;97.39
13013;BME280;22580;57.670;12.006;2022-10-16T03:21:30;100156.53;;;19.01;97.65
13013;BME280;22580;57.670;12.006;2022-10-16T03:24:05;100204.13;;;19.49;97.15
13013;BME280;22580;57.670;12.006;2022-10-16T03:26:38;100209.41;;;18.80;99.65
13013;BME280;22580;57.670;12.006;2022-10-16T03:29:06;100188.66;;;19.04;98.62
13013;BME280;22580;57.670;12.006;2022-10-16T03:31:33;100189.88;;;19.01;98.56
13013;BME280;22580;57.670;12.006;2022-10-16T03:34:04;100212.84;;;19.36;97.62
13013;BME280;22580;57.670;12.006;2022-10-16T03:36:31;100219.91;;;19.53;96.49
13013;BME280;22580;57.670;12.006;2022-10-16T03:38:58;100203.78;;;19.21;96.45
13013;BME280;22580;57.670;12.006;2022-10-16T03:41:27;100217.66;;;19.26;96.95
13013;BME280;22580;57.670;12.006;2022-10-16T03:43:54;100214.13;;;19.17;97.36
13013;BME280;22580;57.670;12.006;2022-10-16T03:46:23;100200.63;;;19.09;97.09
13013;BME280;22580;57.670;12.006;2022-10-16T03:48:51;100188.09;;;18.85;97.49
13013;BME280;22580;57.670;12.006;2022-10-16T03:51:26;100215.13;;;18.93;97.74
13013;BME280;22580;57.670;12.006;2022-10-16T03:53:53;100211.22;;;18.96;97.45
13013;BME280;22580;57.670;12.006;2022-10-16T03:56:20;100186.25;;;18.78;97.00
13013;BME280;22580;57.670;12.006;2022-10-16T03:58:47;100148.06;;;18.56;96.73
13013;BME280;22580;57.670;12.006;2022-10-16T04:01:14;100220.06;;;18.90;97.20
13013;BME280;22580;57.670;12.006;2022-10-16T04:03:43;100223.50;;;18.67;98.00
13013;BME280;22580;57.670;12.006;2022-10-16T04:06:13;100191.22;;;18.42;97.85
13013;BME280;22580;57.670;12.006;2022-10-16T04:08:43;100182.25;;;18.49;97.54
13013;BME280;22580;57.670;12.006;2022-10-16T04:11:11;100225.72;;;18.64;97.80
13013;BME280;22580;57.670;12.006;2022-10-16T04:13:38;100226.91;;;18.53;97.84
13013;BME280;22580;57.670;12.006;2022-10-16T04:16:09;100178.19;;;18.45;97.43
13013;BME280;22580;57.670;12.006;2022-10-16T04:18:36;100227.41;;;18.57;97.72
13013;BME280;22580;57.670;12.006;2022-10-16T04:21:04;100225.53;;;18.57;97.88
13013;BME280;22580;57.670;12.006;2022-10-16T04:23:31;100200.69;;;18.46;97.90
13013;BME280;22580;57.670;12.006;2022-10-16T04:26:01;100223.84;;;18.56;98.07
13013;BME280;22580;57.670;12.006;2022-10-16T04:28:29;100217.75;;;18.54;98.24
13013;BME280;22580;57.670;12.006;2022-10-16T04:30:56;100222.88;;;18.41;98.68
13013;BME280;22580;57.670;12.006;2022-10-16T04:33:23;100226.47;;;17.85;99.94
13013;BME280;22580;57.670;12.006;2022-10-16T04:35:56;100223.28;;;17.89;100.00
13013;BME280;22580;57.670;12.006;2022-10-16T04:38:23;100211.91;;;17.61;100.00
13013;BME280;22580;57.670;12.006;2022-10-16T04:40:51;100195.00;;;17.51;100.00
13013;BME280;22580;57.670;12.006;2022-10-16T04:43:21;100221.06;;;17.85;100.00
13013;BME280;22580;57.670;12.006;2022-10-16T04:45:51;100180.34;;;17.70;100.00
13013;BME280;22580;57.670;12.006;2022-10-16T04:48:22;100219.38;;;17.84;100.00
13013;BME280;22580;57.670;12.006;2022-10-16T04:50:49;100182.34;;;17.60;100.00
13013;BME280;22580;57.670;12.006;2022-10-16T04:53:16;100159.69;;;17.53;100.00
13013;BME280;22580;57.670;12.006;2022-10-16T04:55:48;100213.97;;;17.92;100.00
13013;BME280;22580;57.670;12.006;2022-10-16T04:58:15;100184.91;;;17.86;100.00
13013;BME280;22580;57.670;12.006;2022-10-16T05:00:44;100236.97;;;18.12;100.00
13013;BME280;22580;57.670;12.006;2022-10-16T05:03:14;100196.06;;;17.83;100.00
13013;BME280;22580;57.670;12.006;2022-10-16T05:05:43;100224.97;;;18.07;100.00
13013;BME280;22580;57.670;12.006;2022-10-16T05:08:10;100214.16;;;18.07;99.87
13013;BME280;22580;57.670;12.006;2022-10-16T05:10:38;100210.59;;;18.06;100.00
13013;BME280;22580;57.670;12.006;2022-10-16T05:13:07;100195.88;;;18.09;99.88
13013;BME280;22580;57.670;12.006;2022-10-16T05:15:39;100168.00;;;17.92;99.67
13013;BME280;22580;57.670;12.006;2022-10-16T05:18:09;100184.06;;;18.01;99.79
13013;BME280;22580;57.670;12.006;2022-10-16T05:20:42;100177.31;;;17.73;100.00
13013;BME280;22580;57.670;12.006;2022-10-16T05:23:11;100213.97;;;17.84;100.00
13013;BME280;22580;57.670;12.006;2022-10-16T05:25:52;100218.19;;;17.03;100.00
13013;BME280;22580;57.670;12.006;2022-10-16T05:28:20;100195.91;;;17.01;100.00
13013;BME280;22580;57.670;12.006;2022-10-16T05:30:47;100203.44;;;17.48;100.00
13013;BME280;22580;57.670;12.006;2022-10-16T05:33:15;100208.50;;;17.43;100.00
13013;BME280;22580;57.670;12.006;2022-10-16T05:35:45;100200.00;;;17.14;100.00
13013;BME280;22580;57.670;12.006;2022-10-16T05:38:12;100198.69;;;17.34;100.00
13013;BME280;22580;57.670;12.006;2022-10-16T05:40:40;100203.94;;;17.27;100.00
13013;BME280;22580;57.670;12.006;2022-10-16T05:43:07;100207.13;;;17.23;100.00
13013;BME280;22580;57.670;12.006;2022-10-16T05:45:37;100176.91;;;17.19;100.00
13013;BME280;22580;57.670;12.006;2022-10-16T05:48:04;100168.50;;;16.80;100.00
13013;BME280;22580;57.670;12.006;2022-10-16T05:50:36;100172.16;;;17.13;100.00
13013;BME280;22580;57.670;12.006;2022-10-16T05:53:03;100167.25;;;17.17;100.00
13013;BME280;22580;57.670;12.006;2022-10-16T05:55:30;100208.00;;;17.48;100.00
13013;BME280;22580;57.670;12.006;2022-10-16T05:58:03;100160.28;;;16.98;100.00
13013;BME280;22580;57.670;12.006;2022-10-16T06:00:30;100184.84;;;16.79;100.00
13013;BME280;22580;57.670;12.006;2022-10-16T06:03:00;100182.06;;;16.96;100.00
13013;BME280;22580;57.670;12.006;2022-10-16T06:05:33;100185.44;;;16.98;100.00
13013;BME280;22580;57.670;12.006;2022-10-16T06:08:01;100210.31;;;17.34;100.00
13013;BME280;22580;57.670;12.006;2022-10-16T06:10:32;100159.66;;;17.12;100.00
13013;BME280;22580;57.670;12.006;2022-10-16T06:12:59;100179.00;;;16.91;100.00
13013;BME280;22580;57.670;12.006;2022-10-16T06:15:28;100206.75;;;17.10;100.00
13013;BME280;22580;57.670;12.006;2022-10-16T06:17:54;100206.31;;;17.55;100.00
13013;BME280;22580;57.670;12.006;2022-10-16T06:20:21;100191.25;;;17.20;100.00
13013;BME280;22580;57.670;12.006;2022-10-16T06:22:51;100209.00;;;17.30;100.00
13013;BME280;22580;57.670;12.006;2022-10-16T06:25:23;100202.19;;;17.10;100.00
13013;BME280;22580;57.670;12.006;2022-10-16T06:27:55;100174.69;;;17.15;100.00
13013;BME280;22580;57.670;12.006;2022-10-16T06:30:28;100163.16;;;16.96;100.00
13013;BME280;22580;57.670;12.006;2022-10-16T06:32:55;100219.28;;;17.35;100.00
13013;BME280;22580;57.670;12.006;2022-10-16T06:35:24;100208.66;;;17.50;100.00
13013;BME280;22580;57.670;12.006;2022-10-16T06:37:56;100221.25;;;18.08;100.00
13013;BME280;22580;57.670;12.006;2022-10-16T06:40:24;100224.09;;;17.65;100.00
13013;BME280;22580;57.670;12.006;2022-10-16T06:42:54;100217.69;;;17.91;100.00
13013;BME280;22580;57.670;12.006;2022-10-16T06:45:29;100217.34;;;18.02;100.00
13013;BME280;22580;57.670;12.006;2022-10-16T06:47:55;100212.56;;;17.63;100.00
13013;BME280;22580;57.670;12.006;2022-10-16T06:50:25;100206.88;;;17.66;100.00
13013;BME280;22580;57.670;12.006;2022-10-16T06:52:52;100220.06;;;17.86;100.00
13013;BME280;22580;57.670;12.006;2022-10-16T06:55:19;100187.63;;;17.86;100.00
13013;BME280;22580;57.670;12.006;2022-10-16T06:57:51;100221.69;;;18.35;100.00
13013;BME280;22580;57.670;12.006;2022-10-16T07:00:20;100215.56;;;18.66;100.00
13013;BME280;22580;57.670;12.006;2022-10-16T07:02:47;100212.00;;;18.74;100.00
13013;BME280;22580;57.670;12.006;2022-10-16T07:05:14;100203.13;;;19.19;100.00
13013;BME280;22580;57.670;12.006;2022-10-16T07:07:43;100193.44;;;19.24;100.00
13013;BME280;22580;57.670;12.006;2022-10-16T07:10:10;100185.22;;;19.10;100.00
13013;BME280;22580;57.670;12.006;2022-10-16T07:12:39;100217.31;;;19.60;100.00
13013;BME280;22580;57.670;12.006;2022-10-16T07:15:13;100212.72;;;19.29;100.00
13013;BME280;22580;57.670;12.006;2022-10-16T07:17:40;100181.84;;;19.39;100.00
13013;BME280;22580;57.670;12.006;2022-10-16T07:20:18;100204.78;;;19.28;100.00
13013;BME280;22580;57.670;12.006;2022-10-16T07:22:56;100199.38;;;19.51;100.00
13013;BME280;22580;57.670;12.006;2022-10-16T07:25:23;100215.19;;;19.08;100.00
13013;BME280;22580;57.670;12.006;2022-10-16T07:27:56;100210.41;;;18.87;100.00
13013;BME280;22580;57.670;12.006;2022-10-16T07:30:25;100209.31;;;19.05;100.00
13013;BME280;22580;57.670;12.006;2022-10-16T07:32:52;100206.50;;;19.21;100.00
13013;BME280;22580;57.670;12.006;2022-10-16T07:35:19;100213.28;;;19.56;100.00
13013;BME280;22580;57.670;12.006;2022-10-16T07:37:55;100210.41;;;19.49;100.00
13013;BME280;22580;57.670;12.006;2022-10-16T07:40:25;100138.13;;;18.88;100.00
13013;BME280;22580;57.670;12.006;2022-10-16T07:42:53;100201.63;;;19.16;100.00
13013;BME280;22580;57.670;12.006;2022-10-16T07:45:20;100198.03;;;19.24;100.00
13013;BME280;22580;57.670;12.006;2022-10-16T07:47:53;100200.00;;;19.30;100.00
13013;BME280;22580;57.670;12.006;2022-10-16T07:50:24;100175.06;;;19.12;100.00
13013;BME280;22580;57.670;12.006;2022-10-16T07:52:52;100212.09;;;19.50;100.00
13013;BME280;22580;57.670;12.006;2022-10-16T07:55:21;100217.69;;;19.80;100.00
13013;BME280;22580;57.670;12.006;2022-10-16T07:57:48;100200.13;;;19.68;100.00
13013;BME280;22580;57.670;12.006;2022-10-16T08:00:15;100205.91;;;19.87;100.00
13013;BME280;22580;57.670;12.006;2022-10-16T08:02:45;100202.38;;;19.64;100.00
13013;BME280;22580;57.670;12.006;2022-10-16T08:05:13;100198.00;;;20.68;100.00
13013;BME280;22580;57.670;12.006;2022-10-16T08:07:41;100209.19;;;19.97;100.00
13013;BME280;22580;57.670;12.006;2022-10-16T08:10:20;100197.53;;;20.64;100.00
13013;BME280;22580;57.670;12.006;2022-10-16T08:12:48;100187.44;;;20.58;100.00
13013;BME280;22580;57.670;12.006;2022-10-16T08:15:15;100208.66;;;20.84;100.00
13013;BME280;22580;57.670;12.006;2022-10-16T08:17:43;100212.91;;;20.57;100.00
13013;BME280;22580;57.670;12.006;2022-10-16T08:20:11;100217.50;;;20.71;100.00
13013;BME280;22580;57.670;12.006;2022-10-16T08:22:40;100214.66;;;20.12;100.00
13013;BME280;22580;57.670;12.006;2022-10-16T08:25:10;100213.38;;;20.23;100.00
13013;BME280;22580;57.670;12.006;2022-10-16T08:27:37;100185.16;;;19.94;100.00
13013;BME280;22580;57.670;12.006;2022-10-16T08:30:08;100226.63;;;20.03;100.00
13013;BME280;22580;57.670;12.006;2022-10-16T08:32:35;100223.53;;;20.06;100.00
13013;BME280;22580;57.670;12.006;2022-10-16T08:35:03;100209.28;;;19.89;100.00
13013;BME280;22580;57.670;12.006;2022-10-16T08:37:30;100204.72;;;20.42;100.00
13013;BME280;22580;57.670;12.006;2022-10-16T08:39:59;100194.47;;;20.29;100.00
13013;BME280;22580;57.670;12.006;2022-10-16T08:45:42;100225.72;;;20.48;100.00
13013;BME280;22580;57.670;12.006;2022-10-16T08:48:19;100168.41;;;20.73;100.00
13013;BME280;22580;57.670;12.006;2022-10-16T08:50:47;100216.78;;;21.13;100.00
13013;BME280;22580;57.670;12.006;2022-10-16T08:53:19;100218.34;;;21.37;100.00
13013;BME280;22580;57.670;12.006;2022-10-16T08:55:51;100228.50;;;21.65;99.10
13013;BME280;22580;57.670;12.006;2022-10-16T08:58:26;100209.09;;;21.02;99.36
13013;BME280;22580;57.670;12.006;2022-10-16T09:01:00;100219.88;;;21.25;99.99
13013;BME280;22580;57.670;12.006;2022-10-16T09:03:38;100214.41;;;21.40;98.46
13013;BME280;22580;57.670;12.006;2022-10-16T09:06:29;100203.59;;;20.81;100.00
13013;BME280;22580;57.670;12.006;2022-10-16T09:09:27;100140.63;;;20.04;100.00
13013;BME280;22580;57.670;12.006;2022-10-16T09:12:05;100162.56;;;20.32;100.00
13013;BME280;22580;57.670;12.006;2022-10-16T09:14:45;100215.63;;;20.72;100.00
13013;BME280;22580;57.670;12.006;2022-10-16T09:17:24;100138.38;;;20.45;100.00
13013;BME280;22580;57.670;12.006;2022-10-16T09:20:10;100237.78;;;20.46;100.00
13013;BME280;22580;57.670;12.006;2022-10-16T09:22:40;100215.34;;;20.29;100.00
13013;BME280;22580;57.670;12.006;2022-10-16T09:25:12;100220.84;;;20.58;100.00
13013;BME280;22580;57.670;12.006;2022-10-16T09:27:47;100225.00;;;20.32;100.00
13013;BME280;22580;57.670;12.006;2022-10-16T09:30:17;100225.34;;;20.51;100.00
13013;BME280;22580;57.670;12.006;2022-10-16T09:32:47;100215.53;;;20.65;100.00
13013;BME280;22580;57.670;12.006;2022-10-16T09:35:17;100217.47;;;20.42;100.00
13013;BME280;22580;57.670;12.006;2022-10-16T09:37:47;100229.94;;;20.28;100.00
13013;BME280;22580;57.670;12.006;2022-10-16T09:40:25;100219.72;;;20.38;100.00
13013;BME280;22580;57.670;12.006;2022-10-16T09:43:00;100229.25;;;20.11;100.00
13013;BME280;22580;57.670;12.006;2022-10-16T09:45:29;100172.34;;;20.03;100.00
13013;BME280;22580;57.670;12.006;2022-10-16T09:47:56;100189.66;;;20.02;100.00
13013;BME280;22580;57.670;12.006;2022-10-16T09:50:25;100231.28;;;20.32;100.00
13013;BME280;22580;57.670;12.006;2022-10-16T09:53:10;100199.63;;;20.24;99.77
13013;BME280;22580;57.670;12.006;2022-10-16T09:55:48;100237.25;;;20.27;100.00
13013;BME280;22580;57.670;12.006;2022-10-16T09:58:17;100238.28;;;20.26;100.00
13013;BME280;22580;57.670;12.006;2022-10-16T10:00:49;100223.56;;;20.73;99.08
13013;BME280;22580;57.670;12.006;2022-10-16T10:03:38;100210.34;;;20.03;100.00
13013;BME280;22580;57.670;12.006;2022-10-16T10:06:18;100217.44;;;20.04;100.00
13013;BME280;22580;57.670;12.006;2022-10-16T10:08:58;100229.19;;;19.20;100.00
13013;BME280;22580;57.670;12.006;2022-10-16T10:11:48;100212.72;;;19.60;100.00
13013;BME280;22580;57.670;12.006;2022-10-16T10:14:23;100225.69;;;19.73;100.00
13013;BME280;22580;57.670;12.006;2022-10-16T10:17:10;100218.09;;;19.91;100.00
13013;BME280;22580;57.670;12.006;2022-10-16T10:19:39;100202.31;;;20.10;100.00
13013;BME280;22580;57.670;12.006;2022-10-16T10:22:21;100220.88;;;20.36;100.00
13013;BME280;22580;57.670;12.006;2022-10-16T10:27:53;100203.81;;;20.50;98.98
13013;BME280;22580;57.670;12.006;2022-10-16T10:30:34;100162.81;;;19.47;100.00
13013;BME280;22580;57.670;12.006;2022-10-16T10:33:15;100200.03;;;19.61;100.00
13013;BME280;22580;57.670;12.006;2022-10-16T10:35:55;100215.31;;;19.77;100.00
13013;BME280;22580;57.670;12.006;2022-10-16T10:38:32;100190.78;;;19.70;100.00
13013;BME280;22580;57.670;12.006;2022-10-16T10:41:12;100219.97;;;20.06;100.00
13013;BME280;22580;57.670;12.006;2022-10-16T10:44:03;100131.59;;;19.51;100.00
13013;BME280;22580;57.670;12.006;2022-10-16T10:46:41;100181.69;;;20.01;100.00
13013;BME280;22580;57.670;12.006;2022-10-16T10:49:23;100184.88;;;19.13;100.00
13013;BME280;22580;57.670;12.006;2022-10-16T10:52:10;100220.16;;;19.05;100.00
13013;BME280;22580;57.670;12.006;2022-10-16T10:54:46;100202.16;;;18.81;100.00
13013;BME280;22580;57.670;12.006;2022-10-16T10:57:29;100196.00;;;19.49;100.00
13013;BME280;22580;57.670;12.006;2022-10-16T11:00:10;100192.13;;;19.20;100.00
13013;BME280;22580;57.670;12.006;2022-10-16T11:02:50;100167.91;;;19.19;100.00
13013;BME280;22580;57.670;12.006;2022-10-16T11:05:39;100177.50;;;19.29;100.00
13013;BME280;22580;57.670;12.006;2022-10-16T11:08:11;100205.44;;;19.30;100.00
13013;BME280;22580;57.670;12.006;2022-10-16T11:10:47;100205.06;;;19.87;100.00
13013;BME280;22580;57.670;12.006;2022-10-16T11:13:27;100213.34;;;19.71;100.00
13013;BME280;22580;57.670;12.006;2022-10-16T11:16:01;100180.91;;;19.77;100.00
13013;BME280;22580;57.670;12.006;2022-10-16T11:18:39;100201.34;;;19.65;100.00
13013;BME280;22580;57.670;12.006;2022-10-16T11:21:12;100188.28;;;19.38;100.00
13013;BME280;22580;57.670;12.006;2022-10-16T11:23:44;100177.19;;;19.55;100.00
13013;BME280;22580;57.670;12.006;2022-10-16T11:26:24;100187.91;;;19.41;100.00
13013;BME280;22580;57.670;12.006;2022-10-16T11:28:56;100144.19;;;18.98;100.00
13013;BME280;22580;57.670;12.006;2022-10-16T11:31:29;100161.94;;;19.23;100.00
13013;BME280;22580;57.670;12.006;2022-10-16T11:34:08;100197.00;;;19.79;100.00
13013;BME280;22580;57.670;12.006;2022-10-16T11:36:45;100175.50;;;19.77;100.00
13013;BME280;22580;57.670;12.006;2022-10-16T11:39:19;100179.75;;;19.18;100.00
13013;BME280;22580;57.670;12.006;2022-10-16T11:41:49;100168.59;;;20.42;100.00
13013;BME280;22580;57.670;12.006;2022-10-16T11:47:17;100157.78;;;19.67;100.00
13013;BME280;22580;57.670;12.006;2022-10-16T11:49:50;100155.84;;;19.75;100.00
13013;BME280;22580;57.670;12.006;2022-10-16T11:52:24;100176.75;;;20.71;100.00
13013;BME280;22580;57.670;12.006;2022-10-16T11:54:57;100162.88;;;21.17;97.44
13013;BME280;22580;57.670;12.006;2022-10-16T11:57:32;100161.06;;;20.14;100.00
13013;BME280;22580;57.670;12.006;2022-10-16T12:00:05;100160.97;;;19.70;100.00
13013;BME280;22580;57.670;12.006;2022-10-16T12:02:47;100265.75;;;19.63;100.00
13013;BME280;22580;57.670;12.006;2022-10-16T12:05:26;100300.00;;;18.29;100.00
13013;BME280;22580;57.670;12.006;2022-10-16T12:08:06;100280.63;;;17.59;98.11
13013;BME280;22580;57.670;12.006;2022-10-16T12:10:35;100288.50;;;17.36;99.82
13013;BME280;22580;57.670;12.006;2022-10-16T12:13:02;100288.88;;;17.49;99.79
13013;BME280;22580;57.670;12.006;2022-10-16T12:15:33;100294.16;;;17.59;100.00
13013;BME280;22580;57.670;12.006;2022-10-16T12:18:01;100297.13;;;17.40;100.00
13013;BME280;22580;57.670;12.006;2022-10-16T12:20:31;100254.09;;;16.96;100.00
13013;BME280;22580;57.670;12.006;2022-10-16T12:23:05;100268.81;;;17.01;100.00
13013;BME280;22580;57.670;12.006;2022-10-16T12:25:34;100290.16;;;16.87;100.00
13013;BME280;22580;57.670;12.006;2022-10-16T12:28:05;100241.38;;;16.80;100.00
13013;BME280;22580;57.670;12.006;2022-10-16T12:30:35;100255.69;;;17.07;100.00
13013;BME280;22580;57.670;12.006;2022-10-16T12:33:05;100252.38;;;16.61;100.00
13013;BME280;22580;57.670;12.006;2022-10-16T12:35:35;100277.16;;;16.82;100.00
13013;BME280;22580;57.670;12.006;2022-10-16T12:38:16;100245.47;;;16.92;100.00
13013;BME280;22580;57.670;12.006;2022-10-16T12:40:44;100270.38;;;16.78;100.00
13013;BME280;22580;57.670;12.006;2022-10-16T12:43:41;100250.53;;;17.29;100.00
13013;BME280;22580;57.670;12.006;2022-10-16T12:46:24;100228.44;;;17.58;100.00
13013;BME280;22580;57.670;12.006;2022-10-16T12:49:14;100246.56;;;18.31;100.00
13013;BME280;22580;57.670;12.006;2022-10-16T12:51:49;100260.91;;;18.56;100.00
13013;BME280;22580;57.670;12.006;2022-10-16T12:54:18;100274.28;;;18.41;100.00
13013;BME280;22580;57.670;12.006;2022-10-16T12:56:56;100284.25;;;18.24;100.00
13013;BME280;22580;57.670;12.006;2022-10-16T12:59:32;100248.56;;;18.53;100.00
13013;BME280;22580;57.670;12.006;2022-10-16T13:02:30;100283.25;;;18.33;100.00
13013;BME280;22580;57.670;12.006;2022-10-16T13:05:20;100289.16;;;18.37;100.00
13013;BME280;22580;57.670;12.006;2022-10-16T13:08:09;100293.72;;;18.45;100.00
13013;BME280;22580;57.670;12.006;2022-10-16T13:10:57;100318.44;;;18.09;100.00